createdAt,value
2018-09-07T00:00:10.129Z,15.80
2018-09-07T00:02:38.764Z,15.80
2018-09-07T00:05:08.995Z,15.80
2018-09-07T00:07:37.514Z,15.80
2018-09-07T00:10:06.188Z,15.70
2018-09-07T00:12:34.642Z,15.80
2018-09-07T00:15:03.203Z,15.80
2018-09-07T00:17:31.686Z,15.80
2018-09-07T00:20:00.154Z,15.80
2018-09-07T00:22:28.620Z,15.80
2018-09-07T00:24:57.106Z,15.70
2018-09-07T00:27:25.586Z,15.80
2018-09-07T00:29:54.066Z,15.80
2018-09-07T00:32:22.533Z,15.70
2018-09-07T00:34:51.032Z,15.70
2018-09-07T00:37:19.506Z,15.70
2018-09-07T00:39:47.989Z,15.70
2018-09-07T00:42:16.513Z,15.60
2018-09-07T00:44:45.014Z,15.60
2018-09-07T00:47:13.533Z,15.60
2018-09-07T00:49:42.006Z,15.60
2018-09-07T00:52:10.538Z,15.60
2018-09-07T00:54:41.127Z,15.50
2018-09-07T00:57:10.014Z,15.50
2018-09-07T00:59:38.495Z,15.50
2018-09-07T01:02:06.948Z,15.50
2018-09-07T01:04:35.426Z,15.50
2018-09-07T01:07:03.909Z,15.50
2018-09-07T01:09:32.406Z,15.50
2018-09-07T01:12:01.375Z,15.60
2018-09-07T01:14:29.914Z,15.50
2018-09-07T01:16:58.697Z,15.50
2018-09-07T01:19:27.207Z,15.50
2018-09-07T01:21:55.770Z,15.60
2018-09-07T01:24:24.243Z,15.50
2018-09-07T01:26:52.742Z,15.60
2018-09-07T01:29:21.521Z,15.60
2018-09-07T01:31:50.010Z,15.60
2018-09-07T01:34:23.817Z,15.70
2018-09-07T01:36:54.674Z,15.60
2018-09-07T01:39:23.270Z,15.70
2018-09-07T01:41:51.753Z,15.70
2018-09-07T01:44:20.223Z,15.60
2018-09-07T01:46:48.688Z,15.70
2018-09-07T01:49:17.162Z,15.70
2018-09-07T01:51:46.092Z,15.70
2018-09-07T01:54:14.577Z,15.60
2018-09-07T01:56:43.049Z,15.60
2018-09-07T01:59:12.147Z,15.50
2018-09-07T02:01:40.633Z,15.50
2018-09-07T02:04:09.126Z,15.50
2018-09-07T02:06:37.738Z,15.50
2018-09-07T02:09:07.644Z,15.50
2018-09-07T02:11:36.136Z,15.50
2018-09-07T02:14:04.686Z,15.40
2018-09-07T02:16:33.125Z,15.40
2018-09-07T02:19:01.598Z,15.40
2018-09-07T02:21:30.111Z,15.40
2018-09-07T02:23:58.582Z,15.40
2018-09-07T02:26:27.468Z,15.40
2018-09-07T02:28:55.969Z,15.40
2018-09-07T02:31:24.556Z,15.40
2018-09-07T02:33:53.049Z,15.40
2018-09-07T02:36:21.529Z,15.40
2018-09-07T02:38:50.222Z,15.30
2018-09-07T02:41:18.692Z,15.30
2018-09-07T02:43:48.198Z,15.20
2018-09-07T02:46:16.890Z,15.30
2018-09-07T02:48:46.218Z,15.30
2018-09-07T02:51:14.938Z,15.30
2018-09-07T02:53:43.490Z,15.30
2018-09-07T02:56:12.097Z,15.30
2018-09-07T02:58:40.655Z,15.30
2018-09-07T03:01:09.186Z,15.30
2018-09-07T03:03:37.651Z,15.30
2018-09-07T03:06:06.292Z,15.30
2018-09-07T03:08:34.782Z,15.30
2018-09-07T03:11:03.234Z,15.30
2018-09-07T03:13:31.700Z,15.30
2018-09-07T03:16:00.177Z,15.40
2018-09-07T03:18:28.663Z,15.40
2018-09-07T03:20:57.143Z,15.40
2018-09-07T03:23:25.816Z,15.40
2018-09-07T03:25:54.242Z,15.40
2018-09-07T03:28:22.723Z,15.40
2018-09-07T03:30:51.170Z,15.30
2018-09-07T03:33:19.629Z,15.30
2018-09-07T03:35:48.094Z,15.30
2018-09-07T03:38:16.568Z,15.30
2018-09-07T03:40:45.044Z,15.40
2018-09-07T03:43:13.511Z,15.40
2018-09-07T03:45:42.246Z,15.30
2018-09-07T03:48:10.735Z,15.30
2018-09-07T03:50:39.227Z,15.20
2018-09-07T03:53:07.714Z,15.20
2018-09-07T03:55:36.200Z,15.20
2018-09-07T03:58:04.709Z,15.20
2018-09-07T04:00:33.398Z,15.10
2018-09-07T04:03:01.893Z,15.10
2018-09-07T04:05:30.587Z,15.10
2018-09-07T04:07:59.076Z,15.10
2018-09-07T04:10:27.597Z,15.10
2018-09-07T04:12:56.297Z,15.20
2018-09-07T04:15:24.856Z,15.10
2018-09-07T04:17:53.311Z,15.10
2018-09-07T04:20:21.786Z,15.10
2018-09-07T04:22:50.225Z,15.10
2018-09-07T04:25:18.726Z,15.10
2018-09-07T04:27:47.201Z,15.10
2018-09-07T04:30:15.682Z,15.10
2018-09-07T04:32:44.141Z,15.10
2018-09-07T04:35:12.582Z,15.10
2018-09-07T04:37:41.059Z,15.10
2018-09-07T04:40:09.522Z,15.10
2018-09-07T04:42:38.000Z,15.20
2018-09-07T04:45:06.521Z,15.20
2018-09-07T04:47:34.986Z,15.10
2018-09-07T04:50:03.598Z,15.10
2018-09-07T04:52:32.078Z,15.00
2018-09-07T04:55:00.568Z,15.10
2018-09-07T04:57:29.035Z,15.10
2018-09-07T04:59:57.554Z,15.10
2018-09-07T05:02:26.244Z,15.20
2018-09-07T05:04:55.213Z,15.20
2018-09-07T05:07:23.700Z,15.30
2018-09-07T05:09:52.181Z,15.30
2018-09-07T05:12:20.624Z,15.30
2018-09-07T05:14:49.109Z,15.40
2018-09-07T05:17:17.560Z,15.30
2018-09-07T05:19:46.034Z,15.40
2018-09-07T05:22:14.533Z,15.40
2018-09-07T05:24:43.538Z,15.50
2018-09-07T05:27:12.473Z,15.50
2018-09-07T05:29:40.938Z,15.60
2018-09-07T05:32:09.510Z,15.60
2018-09-07T05:34:37.993Z,15.60
2018-09-07T05:37:06.515Z,15.60
2018-09-07T05:39:34.976Z,15.60
2018-09-07T05:42:03.478Z,15.60
2018-09-07T05:44:32.170Z,15.60
2018-09-07T05:47:00.714Z,15.60
2018-09-07T05:49:29.438Z,15.60
2018-09-07T05:51:57.904Z,15.60
2018-09-07T05:54:26.430Z,15.60
2018-09-07T05:56:54.889Z,15.70
2018-09-07T05:59:23.376Z,15.70
2018-09-07T06:01:51.837Z,15.70
2018-09-07T06:04:20.307Z,15.60
2018-09-07T06:06:48.777Z,15.60
2018-09-07T06:09:17.245Z,15.50
2018-09-07T06:11:45.727Z,15.60
2018-09-07T06:14:14.289Z,15.50
2018-09-07T06:16:42.761Z,15.60
2018-09-07T06:19:11.229Z,15.60
2018-09-07T06:21:40.838Z,15.60
2018-09-07T06:24:09.345Z,15.60
2018-09-07T06:26:37.861Z,15.60
2018-09-07T06:29:06.361Z,15.70
2018-09-07T06:31:34.859Z,15.70
2018-09-07T06:34:03.349Z,15.60
2018-09-07T06:36:33.942Z,15.50
2018-09-07T06:39:02.592Z,15.50
2018-09-07T06:41:31.286Z,15.60
2018-09-07T06:43:59.778Z,15.50
2018-09-07T06:46:28.293Z,15.50
2018-09-07T06:48:56.815Z,15.60
2018-09-07T06:51:33.226Z,15.60
2018-09-07T06:54:01.781Z,15.50
2018-09-07T06:56:30.314Z,15.50
2018-09-07T06:58:58.868Z,15.50
2018-09-07T07:01:27.320Z,15.50
2018-09-07T07:03:55.783Z,15.50
2018-09-07T07:06:24.332Z,15.50
2018-09-07T07:08:52.803Z,15.50
2018-09-07T07:11:21.309Z,15.50
2018-09-07T07:13:50.002Z,15.50
2018-09-07T07:16:18.475Z,15.60
2018-09-07T07:18:46.941Z,15.70
2018-09-07T07:21:15.428Z,15.90
2018-09-07T07:23:43.885Z,15.90
2018-09-07T07:26:12.791Z,16.10
2018-09-07T07:28:41.410Z,16.20
2018-09-07T07:31:09.893Z,16.40
2018-09-07T07:33:38.488Z,16.50
2018-09-07T07:36:07.097Z,16.70
2018-09-07T07:38:35.808Z,16.90
2018-09-07T07:41:04.295Z,17.00
2018-09-07T07:43:32.805Z,17.20
2018-09-07T07:46:01.297Z,17.30
2018-09-07T07:48:29.781Z,17.40
2018-09-07T07:50:58.287Z,17.30
2018-09-07T07:53:26.757Z,17.30
2018-09-07T07:55:55.231Z,17.30
2018-09-07T07:58:23.693Z,17.40
2018-09-07T08:00:52.187Z,17.50
2018-09-07T08:03:20.649Z,17.50
2018-09-07T08:05:49.622Z,17.60
2018-09-07T08:08:18.098Z,17.70
2018-09-07T08:10:46.558Z,17.80
2018-09-07T08:13:15.263Z,17.90
2018-09-07T08:15:43.774Z,17.80
2018-09-07T08:18:12.270Z,17.90
2018-09-07T08:20:40.839Z,18.10
2018-09-07T08:23:09.247Z,18.20
2018-09-07T08:25:37.769Z,18.20
2018-09-07T08:28:06.582Z,18.10
2018-09-07T08:30:35.083Z,18.20
2018-09-07T08:33:03.746Z,18.30
2018-09-07T08:35:32.161Z,18.70
2018-09-07T08:38:00.654Z,18.80
2018-09-07T08:40:29.235Z,18.90
2018-09-07T08:42:58.302Z,18.80
2018-09-07T08:45:26.854Z,18.70
2018-09-07T08:47:55.593Z,18.40
2018-09-07T08:50:25.030Z,18.30
2018-09-07T08:52:54.721Z,18.30
2018-09-07T08:55:23.573Z,18.20
2018-09-07T08:57:52.029Z,18.20
2018-09-07T09:00:20.531Z,18.20
2018-09-07T09:02:49.002Z,18.30
2018-09-07T09:05:17.529Z,18.30
2018-09-07T09:07:46.006Z,18.30
2018-09-07T09:10:14.476Z,18.30
2018-09-07T09:12:42.929Z,18.30
2018-09-07T09:15:11.490Z,18.20
2018-09-07T09:17:39.960Z,18.20
2018-09-07T09:20:08.669Z,18.10
2018-09-07T09:22:37.118Z,18.00
2018-09-07T09:25:05.638Z,17.90
2018-09-07T09:27:34.134Z,17.90
2018-09-07T09:30:02.705Z,17.90
2018-09-07T09:32:31.158Z,17.90
2018-09-07T09:34:59.649Z,18.00
2018-09-07T09:37:28.129Z,18.10
2018-09-07T09:39:56.613Z,18.10
2018-09-07T09:42:25.061Z,18.10
2018-09-07T09:44:53.510Z,18.20
2018-09-07T09:47:22.049Z,18.30
2018-09-07T09:49:50.516Z,18.40
2018-09-07T09:52:19.028Z,18.70
2018-09-07T09:54:47.506Z,18.70
2018-09-07T09:57:16.038Z,18.60
2018-09-07T09:59:44.506Z,18.40
2018-09-07T10:02:18.362Z,18.10
2018-09-07T10:04:46.795Z,18.10
2018-09-07T10:07:15.265Z,17.90
2018-09-07T10:09:43.771Z,18.10
2018-09-07T10:12:12.351Z,18.30
2018-09-07T10:14:40.768Z,18.40
2018-09-07T10:17:09.480Z,18.60
2018-09-07T10:19:37.918Z,18.70
2018-09-07T10:22:06.381Z,18.80
2018-09-07T10:24:34.894Z,18.70
2018-09-07T10:27:03.382Z,18.70
2018-09-07T10:29:31.854Z,18.90
2018-09-07T10:32:00.421Z,18.70
2018-09-07T10:34:28.887Z,18.70
2018-09-07T10:36:57.358Z,18.90
2018-09-07T10:39:25.865Z,18.80
2018-09-07T10:41:54.327Z,19.00
2018-09-07T10:44:22.813Z,19.10
2018-09-07T10:46:51.309Z,18.90
2018-09-07T10:49:19.786Z,18.90
2018-09-07T10:51:48.274Z,18.70
2018-09-07T10:54:16.774Z,18.40
2018-09-07T10:56:45.291Z,18.30
2018-09-07T10:59:13.883Z,18.20
2018-09-07T11:01:42.414Z,18.40
2018-09-07T11:04:10.933Z,18.40
2018-09-07T11:06:40.027Z,18.60
2018-09-07T11:09:10.481Z,18.90
2018-09-07T11:11:38.954Z,19.10
2018-09-07T11:14:07.551Z,19.20
2018-09-07T11:16:36.029Z,19.10
2018-09-07T11:19:04.569Z,19.10
2018-09-07T11:21:33.024Z,19.10
2018-09-07T11:24:01.467Z,19.00
2018-09-07T11:26:29.949Z,18.90
2018-09-07T11:28:58.420Z,19.00
2018-09-07T11:31:27.796Z,19.20
2018-09-07T11:33:56.278Z,19.50
2018-09-07T11:36:25.719Z,19.80
2018-09-07T11:38:54.202Z,20.10
2018-09-07T11:41:22.712Z,20.00
2018-09-07T11:43:51.202Z,19.80
2018-09-07T11:46:19.772Z,19.50
2018-09-07T11:48:48.233Z,19.20
2018-09-07T11:51:16.724Z,19.10
2018-09-07T11:53:45.258Z,19.00
2018-09-07T11:56:13.791Z,19.10
2018-09-07T11:58:42.312Z,19.30
2018-09-07T12:01:10.794Z,19.20
2018-09-07T12:03:39.308Z,19.20
2018-09-07T12:06:07.802Z,18.80
2018-09-07T12:08:36.250Z,18.80
2018-09-07T12:11:04.717Z,18.90
2018-09-07T12:13:33.189Z,18.70
2018-09-07T12:16:01.662Z,18.80
2018-09-07T12:18:30.169Z,18.90
2018-09-07T12:20:58.667Z,19.00
2018-09-07T12:23:27.175Z,19.00
2018-09-07T12:25:55.649Z,19.00
2018-09-07T12:28:24.231Z,19.00
2018-09-07T12:30:52.809Z,19.00
2018-09-07T12:33:21.362Z,18.90
2018-09-07T12:35:50.313Z,19.00
2018-09-07T12:38:18.832Z,19.00
2018-09-07T12:40:47.410Z,19.10
2018-09-07T12:43:15.949Z,19.00
2018-09-07T12:45:44.527Z,19.10
2018-09-07T12:48:13.039Z,18.80
2018-09-07T12:50:41.614Z,18.70
2018-09-07T12:53:10.205Z,18.50
2018-09-07T12:55:38.743Z,18.50
2018-09-07T12:58:07.225Z,18.50
2018-09-07T13:00:35.701Z,18.70
2018-09-07T13:03:04.302Z,18.80
2018-09-07T13:05:38.237Z,18.70
2018-09-07T13:08:06.769Z,18.80
2018-09-07T13:10:35.275Z,19.00
2018-09-07T13:13:03.731Z,19.20
2018-09-07T13:15:32.241Z,19.40
2018-09-07T13:18:00.683Z,19.30
2018-09-07T13:20:29.153Z,19.20
2018-09-07T13:22:57.585Z,19.10
2018-09-07T13:25:26.062Z,19.00
2018-09-07T13:27:54.509Z,19.30
2018-09-07T13:30:22.978Z,19.30
2018-09-07T13:32:51.458Z,19.20
2018-09-07T13:35:19.907Z,19.00
2018-09-07T13:37:48.354Z,18.90
2018-09-07T13:40:16.858Z,19.00
2018-09-07T13:42:45.321Z,19.10
2018-09-07T13:45:14.054Z,19.20
2018-09-07T13:47:42.599Z,19.10
2018-09-07T13:50:11.050Z,19.10
2018-09-07T13:52:39.517Z,19.20
2018-09-07T13:55:08.047Z,19.30
2018-09-07T13:57:36.534Z,19.40
2018-09-07T14:00:05.050Z,19.50
2018-09-07T14:02:33.538Z,19.40
2018-09-07T14:05:02.143Z,19.40
2018-09-07T14:07:30.638Z,19.50
2018-09-07T14:09:59.229Z,19.40
2018-09-07T14:12:27.725Z,19.50
2018-09-07T14:14:56.230Z,19.40
2018-09-07T14:17:24.687Z,19.50
2018-09-07T14:19:53.342Z,19.60
2018-09-07T14:22:21.851Z,19.60
2018-09-07T14:24:50.546Z,19.60
2018-09-07T14:27:18.989Z,19.50
2018-09-07T14:29:47.482Z,19.40
2018-09-07T14:32:16.014Z,19.30
2018-09-07T14:34:44.533Z,19.50
2018-09-07T14:37:12.977Z,19.50
2018-09-07T14:39:41.440Z,19.60
2018-09-07T14:42:09.950Z,19.50
2018-09-07T14:44:38.658Z,19.50
2018-09-07T14:47:07.133Z,19.50
2018-09-07T14:49:35.600Z,19.60
2018-09-07T14:52:04.065Z,19.60
2018-09-07T14:54:32.633Z,19.60
2018-09-07T14:57:01.061Z,19.50
2018-09-07T14:59:29.521Z,19.50
2018-09-07T15:01:57.982Z,19.40
2018-09-07T15:04:26.432Z,19.30
2018-09-07T15:06:54.902Z,19.20
2018-09-07T15:09:23.379Z,19.20
2018-09-07T15:11:51.869Z,19.30
2018-09-07T15:14:20.342Z,19.20
2018-09-07T15:16:48.826Z,19.00
2018-09-07T15:19:17.293Z,19.00
2018-09-07T15:21:45.761Z,19.00
2018-09-07T15:24:14.235Z,19.20
2018-09-07T15:26:42.712Z,19.30
2018-09-07T15:29:11.202Z,19.20
2018-09-07T15:31:39.745Z,19.10
2018-09-07T15:34:08.281Z,19.20
2018-09-07T15:36:36.758Z,19.20
2018-09-07T15:39:07.422Z,19.10
2018-09-07T15:41:35.938Z,19.00
2018-09-07T15:44:04.397Z,19.00
2018-09-07T15:46:32.886Z,18.90
2018-09-07T15:49:01.402Z,18.80
2018-09-07T15:51:29.874Z,18.70
2018-09-07T15:53:58.384Z,18.60
2018-09-07T15:56:27.086Z,18.60
2018-09-07T15:58:55.569Z,18.60
2018-09-07T16:01:24.041Z,18.60
2018-09-07T16:03:52.725Z,18.60
2018-09-07T16:06:21.200Z,18.50
2018-09-07T16:08:49.662Z,18.50
2018-09-07T16:11:18.114Z,18.40
2018-09-07T16:13:46.562Z,18.30
2018-09-07T16:16:15.138Z,18.30
2018-09-07T16:18:43.738Z,18.30
2018-09-07T16:21:12.600Z,18.30
2018-09-07T16:23:41.066Z,18.30
2018-09-07T16:26:09.525Z,18.20
2018-09-07T16:28:37.999Z,18.20
2018-09-07T16:31:06.494Z,18.10
2018-09-07T16:33:35.197Z,18.00
2018-09-07T16:36:03.650Z,17.90
2018-09-07T16:38:32.151Z,17.70
2018-09-07T16:41:00.616Z,17.70
2018-09-07T16:43:29.079Z,17.50
2018-09-07T16:45:57.597Z,17.50
2018-09-07T16:48:26.090Z,17.40
2018-09-07T16:50:54.602Z,17.30
2018-09-07T16:53:23.090Z,17.30
2018-09-07T16:55:51.630Z,17.20
2018-09-07T16:58:20.118Z,17.10
2018-09-07T17:00:48.675Z,17.00
2018-09-07T17:03:17.161Z,17.00
2018-09-07T17:05:45.673Z,17.00
2018-09-07T17:08:14.360Z,16.90
2018-09-07T17:10:42.821Z,16.90
2018-09-07T17:13:11.286Z,16.80
2018-09-07T17:15:39.747Z,16.80
2018-09-07T17:18:08.337Z,16.70
2018-09-07T17:20:36.801Z,16.60
2018-09-07T17:23:06.822Z,16.60
2018-09-07T17:25:35.324Z,16.50
2018-09-07T17:28:03.850Z,16.40
2018-09-07T17:30:32.317Z,16.40
2018-09-07T17:33:00.779Z,16.40
2018-09-07T17:35:29.230Z,16.30
2018-09-07T17:37:57.681Z,16.20
2018-09-07T17:40:26.211Z,16.20
2018-09-07T17:42:54.669Z,16.20
2018-09-07T17:45:24.183Z,16.20
2018-09-07T17:47:52.590Z,16.10
2018-09-07T17:50:21.422Z,16.10
2018-09-07T17:52:49.881Z,16.00
2018-09-07T17:55:18.357Z,16.00
2018-09-07T17:57:46.893Z,16.00
2018-09-07T18:00:15.389Z,16.00
2018-09-07T18:02:43.838Z,15.90
2018-09-07T18:05:17.725Z,15.90
2018-09-07T18:07:46.230Z,15.90
2018-09-07T18:10:14.951Z,15.80
2018-09-07T18:12:43.426Z,15.80
2018-09-07T18:15:11.874Z,15.80
2018-09-07T18:17:40.330Z,15.70
2018-09-07T18:20:08.810Z,15.70
2018-09-07T18:22:37.489Z,15.60
2018-09-07T18:25:05.963Z,15.50
2018-09-07T18:27:34.605Z,15.50
2018-09-07T18:30:03.326Z,15.50
2018-09-07T18:32:31.847Z,15.50
2018-09-07T18:35:00.387Z,15.40
2018-09-07T18:37:28.785Z,15.40
2018-09-07T18:39:57.281Z,15.40
2018-09-07T18:42:25.922Z,15.40
2018-09-07T18:44:54.422Z,15.40
2018-09-07T18:47:23.045Z,15.40
2018-09-07T18:49:51.677Z,15.30
2018-09-07T18:52:20.302Z,15.30
2018-09-07T18:54:49.098Z,15.40
2018-09-07T18:57:17.684Z,15.40
2018-09-07T18:59:46.326Z,15.30
2018-09-07T19:02:15.023Z,15.30
2018-09-07T19:04:43.640Z,15.30
2018-09-07T19:07:12.370Z,15.30
2018-09-07T19:09:41.176Z,15.20
2018-09-07T19:12:09.719Z,15.20
2018-09-07T19:14:38.400Z,15.20
2018-09-07T19:17:07.090Z,15.20
2018-09-07T19:19:36.048Z,15.10
2018-09-07T19:22:04.595Z,15.20
2018-09-07T19:24:33.070Z,15.20
2018-09-07T19:27:01.574Z,15.20
2018-09-07T19:29:30.473Z,15.20
2018-09-07T19:31:59.366Z,15.30
2018-09-07T19:34:28.019Z,15.30
2018-09-07T19:36:56.663Z,15.30
2018-09-07T19:39:25.192Z,15.30
2018-09-07T19:41:53.703Z,15.20
2018-09-07T19:44:23.367Z,15.20
2018-09-07T19:46:52.469Z,15.20
2018-09-07T19:49:21.434Z,15.20
2018-09-07T19:51:50.287Z,15.20
2018-09-07T19:54:19.141Z,15.20
2018-09-07T19:56:47.804Z,15.20
2018-09-07T19:59:16.575Z,15.10
2018-09-07T20:01:45.942Z,15.00
2018-09-07T20:04:14.530Z,15.00
2018-09-07T20:06:43.276Z,15.00
2018-09-07T20:09:12.091Z,14.90
2018-09-07T20:11:40.794Z,14.90
2018-09-07T20:14:09.485Z,14.90
2018-09-07T20:16:38.032Z,15.00
2018-09-07T20:19:06.755Z,14.90
2018-09-07T20:21:35.585Z,15.00
2018-09-07T20:24:04.472Z,14.90
2018-09-07T20:26:33.375Z,14.80
2018-09-07T20:29:03.163Z,14.80
2018-09-07T20:31:31.963Z,14.80
2018-09-07T20:34:00.710Z,14.70
2018-09-07T20:36:29.616Z,14.80
2018-09-07T20:38:58.431Z,14.70
2018-09-07T20:41:27.109Z,14.70
2018-09-07T20:43:55.626Z,14.70
2018-09-07T20:46:24.694Z,14.70
2018-09-07T20:48:53.693Z,14.60
2018-09-07T20:51:22.517Z,14.60
2018-09-07T20:53:51.029Z,14.50
2018-09-07T20:56:19.574Z,14.50
2018-09-07T20:58:48.118Z,14.50
2018-09-07T21:01:16.559Z,14.40
2018-09-07T21:03:45.098Z,14.40
2018-09-07T21:06:13.570Z,14.40
2018-09-07T21:08:42.808Z,14.30
2018-09-07T21:11:12.496Z,14.30
2018-09-07T21:13:41.111Z,14.40
2018-09-07T21:16:09.747Z,14.30
2018-09-07T21:18:38.258Z,14.30
2018-09-07T21:21:06.795Z,14.40
2018-09-07T21:23:35.326Z,14.40
2018-09-07T21:26:03.855Z,14.40
2018-09-07T21:28:32.370Z,14.40
2018-09-07T21:31:00.884Z,14.30
2018-09-07T21:33:29.375Z,14.30
2018-09-07T21:35:57.896Z,14.30
2018-09-07T21:38:26.372Z,14.30
2018-09-07T21:40:54.835Z,14.30
2018-09-07T21:43:23.301Z,14.30
2018-09-07T21:45:51.839Z,14.30
2018-09-07T21:48:20.362Z,14.20
2018-09-07T21:50:48.864Z,14.20
2018-09-07T21:53:17.325Z,14.20
2018-09-07T21:55:45.811Z,14.10
2018-09-07T21:58:14.520Z,14.10
2018-09-07T22:00:43.030Z,14.00
2018-09-07T22:03:11.670Z,14.10
2018-09-07T22:05:40.157Z,14.00
2018-09-07T22:08:08.634Z,14.00
2018-09-07T22:10:37.157Z,13.90
2018-09-07T22:13:05.942Z,13.90
2018-09-07T22:15:34.473Z,13.80
2018-09-07T22:18:03.047Z,13.50
2018-09-07T22:20:31.749Z,13.50
2018-09-07T22:23:00.201Z,13.40
2018-09-07T22:25:28.678Z,13.30
2018-09-07T22:27:57.186Z,13.30
2018-09-07T22:30:25.688Z,13.30
2018-09-07T22:32:54.154Z,13.30
2018-09-07T22:35:22.626Z,13.30
2018-09-07T22:37:51.094Z,13.30
2018-09-07T22:40:19.557Z,13.50
2018-09-07T22:42:48.050Z,13.50
2018-09-07T22:45:16.757Z,13.50
2018-09-07T22:47:45.226Z,13.50
2018-09-07T22:50:13.686Z,13.60
2018-09-07T22:52:42.194Z,13.60
2018-09-07T22:55:10.667Z,13.50
2018-09-07T22:57:39.125Z,13.60
2018-09-07T23:00:07.659Z,13.60
2018-09-07T23:02:36.125Z,13.60
2018-09-07T23:05:04.964Z,13.60
2018-09-07T23:07:33.419Z,13.60
2018-09-07T23:10:01.902Z,13.50
2018-09-07T23:12:30.367Z,13.50
2018-09-07T23:14:58.849Z,13.40
2018-09-07T23:17:27.288Z,13.40
2018-09-07T23:19:55.758Z,13.30
2018-09-07T23:22:24.214Z,13.40
2018-09-07T23:24:52.934Z,13.40
2018-09-07T23:27:21.375Z,13.30
2018-09-07T23:29:49.833Z,13.40
2018-09-07T23:32:18.322Z,13.30
2018-09-07T23:34:46.815Z,13.40
2018-09-07T23:37:15.587Z,13.40
2018-09-07T23:39:44.042Z,13.40
2018-09-07T23:42:12.505Z,13.40
2018-09-07T23:44:40.990Z,13.40
2018-09-07T23:47:09.442Z,13.40
2018-09-07T23:49:37.927Z,13.40
2018-09-07T23:52:06.530Z,13.40
2018-09-07T23:54:35.054Z,13.50
2018-09-07T23:57:03.519Z,13.50
2018-09-07T23:59:32.113Z,13.50
